• Join FlightAware (Why Join?)
  • Login
  • US Flag 
03:42PM EST


 

Airport Tracker/Info


-or-


 

Live Flight TrackerFlight Track Log ✈ ASQ5941 ✈ 06-Nov-2013 ✈ KORD - KAVP

Flight Track Log - Related Links

Times and Time Zones

All times are in EST time to prevent confusion due to time zone crossing. See the ASQ5941 flight status page for this flight to view local times or setup timezone preferences in your user account.

Time Position Orientation Groundspeed Altitude Reporting Facility
EST Latitude Longitude Course Direction KTS MPH feet Rate Location/Type
03:39PM 42.0000 -87.9500 85° East 161 185 2,300  Level Chicago TRACON
03:40PM 42.0500 -87.9333 14° North 217 250 4,200 1,852 Climbing Chicago TRACON
03:42PM 41.9799 -87.2161 90° East  Level Estimated
03:42PM 42.0856 -87.7703 74° East 296 341 7,300  Level Chicago Center
03:43PM 42.0137 -87.0495 75° East  Level FlightAware Approximate
03:43PM 42.0900 -87.6567 87° East 305 351 9,200  Level Chicago Center
03:44PM 42.0118 -86.8768 85° East  Level Estimated
03:44PM 42.0956 -87.5297 87° East 336 387 10,600  Level Chicago Center
03:45PM 42.1003 -87.3875 87° East 376 433 11,700 1,500 Climbing Chicago Center
03:46PM 42.1069 -87.2108 87° East 393 452 13,700 1,645 Climbing Chicago Center
03:47PM 42.1119 -87.0628 87° East 397 457 15,100 1,258 Climbing Chicago Center
03:48PM 42.1194 -86.9089 86° East 407 468 16,300 1,161 Climbing Chicago Center
03:49PM 42.1250 -86.7472 87° East 424 488 17,500 1,161 Climbing Chicago Center
03:50PM 42.1297 -86.5769 88° East 447 514 18,700 1,161 Climbing Chicago Center
03:51PM 42.1353 -86.4075 87° East 452 520 19,900 1,113 Climbing Chicago Center
03:52PM 42.1400 -86.2342 88° East 461 531 21,000 1,210 Climbing Chicago Center
03:53PM 42.1433 -86.0319 89° East 452 520 22,400 1,200 Climbing Chicago Center
03:54PM 42.1411 -85.8767 91° East 451 519 23,500 1,056 Climbing Chicago Center
03:55PM 42.1397 -85.7056 91° East 458 527 24,600 1,210 Climbing Chicago Center
03:56PM 42.1386 -85.4981 90° East 463 533 26,000 1,210 Climbing Chicago Center
03:57PM 42.1364 -85.3239 91° East 467 537 27,100 1,065 Climbing Chicago Center
03:58PM 42.1347 -85.1489 91° East 470 541 28,200 1,095 Climbing Chicago Center
03:59PM 42.1333 -84.9744 91° East 470 541 29,400 1,095 Climbing Chicago Center
04:00PM 42.1306 -84.7994 91° East 470 541 30,500 1,210 Climbing Chicago Center
04:01PM 42.1289 -84.5869 91° East 474 545 31,900 1,161 Climbing Chicago Center
04:02PM 42.1275 -84.4106 91° East 474 545 32,900 970 Climbing Chicago Center
04:03PM 42.1261 -84.3103 91° East 475 547 33,500 970 Climbing Cleveland Center
04:04PM 42.1233 -84.1106 91° East 482 555 34,500 726 Climbing Cleveland Center
04:05PM 42.1197 -83.9322 92° East 481 554 35,000 242 Climbing Cleveland Center
04:06PM 42.1158 -83.7436 92° East 503 579 35,000  Level Cleveland Center
04:07PM 42.1106 -83.5231 92° East 533 613 35,000  Level Cleveland Center
04:08PM 42.1075 -83.3147 91° East 550 633 35,000  Level Cleveland Center
04:09PM 42.1031 -83.1039 92° East 556 640 35,000  Level Cleveland Center
04:10PM 42.0986 -82.8950 92° East 561 646 35,000  Level Cleveland Center
04:11PM 42.0908 -82.6883 93° East 558 642 35,000  Level Cleveland Center
04:12PM 42.0869 -82.4383 91° East 558 642 35,000  Level Cleveland Center
04:13PM 42.0808 -82.2331 92° East 553 636 35,000  Level Cleveland Center
04:14PM 42.0728 -82.0189 93° East 548 631 35,000  Level Cleveland Center
04:15PM 42.0667 -81.8106 92° East 550 633 35,000  Level Cleveland Center
04:16PM 42.0603 -81.6047 92° East 546 628 35,000  Level Cleveland Center
04:17PM 42.0511 -81.3967 93° East 549 632 35,000  Level Cleveland Center
04:18PM 42.0442 -81.1875 92° East 552 635 35,000  Level Cleveland Center
04:19PM 42.0361 -80.9769 93° East 555 639 35,000  Level Cleveland Center
04:20PM 42.0267 -80.7647 93° East 559 643 35,000  Level Cleveland Center
04:21PM 42.0111 -80.5186 95° East 560 644 35,000  Level Cleveland Center
04:23PM 41.9928 -80.3106 97° East 558 642 35,000  Level Cleveland Center
04:24PM 41.9744 -80.0992 97° East 562 647 35,000  Level Cleveland Center
04:25PM 41.9544 -79.8786 97° East 550 633 35,000  Level Cleveland Center
04:26PM 41.9361 -79.6764 97° East 548 631 35,000 -384 Level Cleveland Center
04:27PM 41.9181 -79.4758 97° East 544 626 34,200 -1,056 Descending Cleveland Center
04:28PM 41.8978 -79.2606 97° East 550 633 32,800 -1,258 Descending Cleveland Center
04:29PM 41.8769 -79.0578 98° East 551 634 31,600 -1,210 Descending Cleveland Center
04:30PM 41.8583 -78.8683 97° East 545 627 30,300 -1,548 Descending Cleveland Center
04:31PM 41.8350 -78.6325 97° East 536 617 28,400 -1,597 Descending Cleveland Center
04:32PM 41.8150 -78.4375 98° East 531 611 27,000 -677 Descending Cleveland Center
04:33PM 41.7939 -78.2417 98° East 532 612 27,000  Level Cleveland Center
04:34PM 41.7739 -78.0497 98° East 525 604 27,000  Level Cleveland Center
04:35PM 41.7533 -77.8553 98° East 527 606 27,000 -865 Level Cleveland Center
04:36PM 41.7358 -77.7008 99° East 531 611 25,500 -2,294 Descending New York Center
04:37PM 41.7169 -77.5211 98° East 510 587 23,100 -1,250 Descending New York Center
04:38PM 41.6950 -77.3575 100° East 497 572 23,000 -7,050 Descending New York Center
04:39PM 41.6750 -77.1861 99° East 480 552 9,000 -1,714 Descending New York Center
04:40PM 41.6592 -77.0181 97° East 465 535 19,600 4,300 Climbing New York Center
04:41PM 41.6403 -76.8581 99° East 447 514 17,600 -2,380 Descending New York Center
04:42PM 41.6181 -76.6811 99° East 436 502 14,800 -2,650 Descending New York Center
04:43PM 41.6019 -76.5439 99° East 423 487 12,300 -2,118 Descending New York Center
04:44PM 41.5842 -76.3925 99° East 387 445 10,600 -1,500 Descending New York Center
04:45PM 41.5689 -76.2719 100° East 341 392 9,300 -1,339 Descending New York Center
04:46PM 41.5594 -76.1603 96° East 310 357 7,900 -1,450 Descending New York Center
04:47PM 41.5703 -76.0614 82° East 292 336 6,400 -1,500 Descending New York Center
04:48PM 41.5747 -75.9564 87° East 287 330 4,900 -1,200 Descending New York Center
04:49PM 41.5836 -75.8461 84° East 275 316 4,000 -450 Descending New York Center
04:50PM 41.5753 -75.7483 96° East 270 311 4,000  Level New York Center
04:51PM 41.5622 -75.6669 102° East 259 298 4,000 -151 Level New York Center
04:52PM 41.5261 -75.5786 119° Southeast 244 281 3,700 -151 Descending New York Center
04:53PM 41.4775 -75.5972 196° South 172 198 3,700 -248 Level New York Center
04:54PM 41.4342 -75.6356 214° Southwest 161 185 3,200 -650 Descending New York Center
04:55PM 41.4061 -75.6639 217° Southwest 159 183 2,400 -756 Descending New York Center
04:56PM 41.3758 -75.6922 215° Southwest 147 169 1,700 -700 Descending New York Center